Time;durP1;ratioP1;P1;durP2;ratioP2;P2;SDS_P1;SDS_P2;PMS_P1;PMS_P2;Temp;Humidity;BMP_temperature;BMP_pressure;BME280_temperature;BME280_humidity;BME280_pressure;Samples;Min_cycle;Max_cycle;Signal;HPM_P1;HPM_P2
2021/12/24 00:00:15;;;;;;;;;;;;;;;2.37;100.00;99730.53;5004296;28;19921;-72
2021/12/24 00:02:40;;;;;;;;;;;;;;;2.44;100.00;99734.31;4976905;28;20000;-72
2021/12/24 00:05:06;;;;;;;;;;;;;;;2.47;100.00;99732.31;4965336;28;19923;-72
2021/12/24 00:07:32;;;;;;;;;;;;;;;2.38;100.00;99734.78;5000463;28;20012;-73
2021/12/24 00:09:58;;;;;;;;;;;;;;;2.46;100.00;99740.19;4998520;28;19916;-72
2021/12/24 00:12:26;;;;;;;;;;;;;;;2.49;100.00;99739.94;5030452;28;19917;-72
2021/12/24 00:14:56;;;;;;;;;;;;;;;2.56;100.00;99735.91;4997442;28;19913;-72
2021/12/24 00:17:27;;;;;;;;;;;;;;;2.57;100.00;99736.75;5005694;28;19917;-73
2021/12/24 00:20:09;;;;;;;;;;;;;;;2.56;100.00;99733.34;5014730;28;20796;-73
2021/12/24 00:36:15;;;;;;;;;;;;;;;2.72;100.00;99731.19;4994496;28;19935;-72
2021/12/24 00:38:41;;;;;;;;;;;;;;;2.73;100.00;99734.59;4986890;28;19917;-72
2021/12/24 00:41:07;;;;;;;;;;;;;;;2.72;100.00;99738.97;5012973;28;19928;-72
2021/12/24 00:43:32;;;;;;;;;;;;;;;2.80;100.00;99738.34;5016218;28;19921;-71
2021/12/24 00:45:58;;;;;;;;;;;;;;;2.77;100.00;99736.03;5007993;28;19916;-73
2021/12/24 00:48:25;;;;;;;;;;;;;;;2.84;100.00;99737.16;4992557;28;20007;-73
2021/12/24 00:55:58;;;;;;;;;;;;;;;2.91;100.00;99740.09;5006446;28;19917;-73
2021/12/24 00:58:24;;;;;;;;;;;;;;;2.89;100.00;99739.41;4989969;28;20468;-73
2021/12/24 01:00:50;;;;;;;;;;;;;;;2.81;100.00;99734.84;5023089;28;19967;-72
2021/12/24 01:03:15;;;;;;;;;;;;;;;2.72;100.00;99738.16;5018434;28;20015;-73
2021/12/24 01:05:42;;;;;;;;;;;;;;;2.69;100.00;99733.19;4991125;28;19968;-73
2021/12/24 01:08:09;;;;;;;;;;;;;;;2.65;100.00;99734.38;5014738;28;19925;-73
2021/12/24 01:10:37;;;;;;;;;;;;;;;2.85;100.00;99735.41;5018200;28;19920;-75
2021/12/24 01:13:03;;;;;;;;;;;;;;;2.71;100.00;99728.72;4988245;28;19928;-72
2021/12/24 01:15:30;;;;;;;;;;;;;;;2.70;100.00;99732.28;5039042;28;19917;-71
2021/12/24 01:20:41;;;;;;;;;;;;;;;2.60;100.00;99737.34;5015099;28;20987;-72
2021/12/24 01:26:04;;;;;;;;;;;;;;;2.65;100.00;99742.97;4981566;28;20588;-72
2021/12/24 01:39:40;;;;;;;;;;;;;;;2.89;100.00;99729.84;5011005;28;20389;-73
2021/12/24 01:44:51;;;;;;;;;;;;;;;2.84;100.00;99715.63;5001899;28;19920;-72
2021/12/24 01:47:17;;;;;;;;;;;;;;;2.73;100.00;99706.13;5004027;28;19963;-73
2021/12/24 01:49:42;;;;;;;;;;;;;;;2.82;100.00;99715.75;5002867;28;20507;-73
2021/12/24 01:52:08;;;;;;;;;;;;;;;2.84;100.00;99713.03;5001412;28;19917;-72
2021/12/24 01:54:38;;;;;;;;;;;;;;;2.95;100.00;99712.19;5022176;28;19920;-73
2021/12/24 01:57:06;;;;;;;;;;;;;;;2.95;100.00;99717.38;5031810;28;19920;-73
2021/12/24 01:59:32;;;;;;;;;;;;;;;2.83;100.00;99714.00;5008732;28;20028;-73
2021/12/24 02:01:57;;;;;;;;;;;;;;;2.86;100.00;99712.00;5002873;28;20012;-72
2021/12/24 02:04:23;;;;;;;;;;;;;;;2.88;100.00;99704.91;5003686;28;19928;-73
2021/12/24 02:06:49;;;;;;;;;;;;;;;3.09;100.00;99697.19;5008518;28;19921;-72
2021/12/24 02:09:15;;;;;;;;;;;;;;;3.09;100.00;99693.78;5009246;28;19978;-74
2021/12/24 02:11:41;;;;;;;;;;;;;;;3.01;100.00;99699.56;5038070;28;20313;-72
2021/12/24 02:14:12;;;;;;;;;;;;;;;2.97;100.00;99689.56;5015313;28;19996;-71
2021/12/24 02:30:03;;;;;;;;;;;;;;;2.97;100.00;99668.84;5013811;28;19923;-72
2021/12/24 02:32:28;;;;;;;;;;;;;;;2.86;100.00;99674.88;5026683;28;20410;-72
2021/12/24 02:34:54;;;;;;;;;;;;;;;2.79;100.00;99665.97;5028827;28;19917;-73
2021/12/24 02:37:20;;;;;;;;;;;;;;;2.89;100.00;99666.88;5013002;28;19918;-72
2021/12/24 02:39:45;;;;;;;;;;;;;;;2.84;100.00;99669.81;5010482;28;20205;-74
2021/12/24 02:42:21;;;;;;;;;;;;;;;2.87;100.00;99666.19;5029007;28;19912;-73
2021/12/24 02:44:47;;;;;;;;;;;;;;;2.91;100.00;99668.38;5021818;28;19964;-72
2021/12/24 02:55:11;;;;;;;;;;;;;;;2.93;100.00;99657.91;4965775;28;19917;-73
2021/12/24 02:57:38;;;;;;;;;;;;;;;3.03;100.00;99656.25;5047031;28;19925;-73
2021/12/24 03:00:14;;;;;;;;;;;;;;;2.98;100.00;99655.78;5024663;28;19921;-73
2021/12/24 03:02:40;;;;;;;;;;;;;;;3.02;100.00;99646.81;5013887;28;19959;-72
2021/12/24 03:05:06;;;;;;;;;;;;;;;3.17;100.00;99649.91;5020375;28;19917;-74
2021/12/24 03:07:32;;;;;;;;;;;;;;;3.19;100.00;99649.81;5015472;28;19916;-72
2021/12/24 03:09:59;;;;;;;;;;;;;;;3.30;100.00;99645.38;4995201;28;20007;-72
2021/12/24 03:12:25;;;;;;;;;;;;;;;3.33;100.00;99641.69;5016580;28;19995;-72
2021/12/24 03:14:51;;;;;;;;;;;;;;;3.28;100.00;99641.28;5006957;28;20009;-72
2021/12/24 03:17:20;;;;;;;;;;;;;;;3.23;100.00;99638.22;5020765;28;20011;-72
2021/12/24 03:19:46;;;;;;;;;;;;;;;3.22;100.00;99655.56;5039663;28;19928;-72
2021/12/24 03:23:06;;;;;;;;;;;;;;;3.17;100.00;99657.69;5037978;28;19917;-73
2021/12/24 03:25:01;;;;;;;;;;;;;;;3.16;100.00;99666.41;5011517;28;19972;-72
2021/12/24 03:27:26;;;;;;;;;;;;;;;3.24;100.00;99669.22;5008272;28;19921;-71
2021/12/24 03:29:52;;;;;;;;;;;;;;;3.15;100.00;99661.38;5025892;28;19917;-71
2021/12/24 03:32:18;;;;;;;;;;;;;;;3.13;100.00;99648.53;4993849;28;19937;-72
2021/12/24 03:34:43;;;;;;;;;;;;;;;3.15;100.00;99656.19;5019076;28;19952;-72
2021/12/24 03:37:09;;;;;;;;;;;;;;;3.12;100.00;99652.06;5019750;28;19913;-72
2021/12/24 03:39:35;;;;;;;;;;;;;;;3.19;100.00;99644.63;5012791;28;20003;-72
2021/12/24 03:42:02;;;;;;;;;;;;;;;3.33;100.00;99633.91;5010550;28;20003;-72
2021/12/24 03:44:41;;;;;;;;;;;;;;;3.38;100.00;99633.56;5029608;28;19924;-72
2021/12/24 03:47:18;;;;;;;;;;;;;;;3.39;100.00;99628.25;5029495;28;19935;-72
2021/12/24 03:50:01;;;;;;;;;;;;;;;3.32;100.00;99629.69;5023470;28;19948;-72
2021/12/24 03:54:56;;;;;;;;;;;;;;;3.48;100.00;99608.50;5005049;28;20436;-72
2021/12/24 03:57:24;;;;;;;;;;;;;;;3.43;100.00;99611.47;4994936;28;19980;-73
2021/12/24 04:00:14;;;;;;;;;;;;;;;3.43;100.00;99616.66;5025990;28;20275;-72
2021/12/24 04:02:42;;;;;;;;;;;;;;;3.29;100.00;99625.56;5022907;28;19920;-72
2021/12/24 04:05:26;;;;;;;;;;;;;;;3.43;100.00;99627.03;5031208;28;20012;-73
2021/12/24 04:08:18;;;;;;;;;;;;;;;3.29;100.00;99622.97;5012448;28;20008;-72
2021/12/24 04:11:07;;;;;;;;;;;;;;;3.41;100.00;99628.09;5008954;28;19931;-73
2021/12/24 04:13:36;;;;;;;;;;;;;;;3.31;100.00;99631.47;5014234;28;19920;-73
2021/12/24 04:16:02;;;;;;;;;;;;;;;3.31;100.00;99638.41;5007750;28;19917;-73
2021/12/24 04:26:25;;;;;;;;;;;;;;;3.43;100.00;99632.22;4998105;28;19917;-72
2021/12/24 04:28:51;;;;;;;;;;;;;;;3.34;100.00;99632.97;5011359;28;19919;-74
2021/12/24 04:31:21;;;;;;;;;;;;;;;3.16;100.00;99635.31;5008160;28;20449;-73
2021/12/24 04:33:51;;;;;;;;;;;;;;;3.12;100.00;99646.88;5007437;28;19917;-73
2021/12/24 04:37:15;;;;;;;;;;;;;;;3.19;100.00;99640.25;5014264;28;19917;-72
2021/12/24 04:39:38;;;;;;;;;;;;;;;3.09;100.00;99642.78;5019746;28;20301;-72
2021/12/24 04:51:04;;;;;;;;;;;;;;;3.04;100.00;99651.88;5031535;28;19918;-72
2021/12/24 05:01:14;;;;;;;;;;;;;;;3.00;100.00;99661.66;5004635;28;19912;-72
2021/12/24 05:01:59;;;;;;;;;;;;;;;2.83;100.00;99668.19;5020038;28;19921;-72
2021/12/24 05:04:30;;;;;;;;;;;;;;;2.87;100.00;99668.78;5021088;28;20674;-74
2021/12/24 05:07:06;;;;;;;;;;;;;;;2.93;100.00;99663.09;5004782;28;19925;-74
2021/12/24 05:09:32;;;;;;;;;;;;;;;2.89;100.00;99667.69;5016761;28;19917;-72
2021/12/24 05:11:58;;;;;;;;;;;;;;;2.89;100.00;99661.69;5039708;28;19921;-72
2021/12/24 05:14:27;;;;;;;;;;;;;;;2.81;100.00;99654.56;5016006;28;19920;-73
2021/12/24 05:17:46;;;;;;;;;;;;;;;2.84;100.00;99656.88;5005403;28;19913;-73
2021/12/24 05:23:11;;;;;;;;;;;;;;;2.98;100.00;99673.91;5036752;28;19913;-72
2021/12/24 05:25:42;;;;;;;;;;;;;;;3.02;100.00;99680.50;5032672;28;20364;-73
2021/12/24 05:28:08;;;;;;;;;;;;;;;3.00;100.00;99676.38;5015053;28;19916;-72
2021/12/24 05:30:33;;;;;;;;;;;;;;;3.01;100.00;99665.06;5000730;28;19921;-73
2021/12/24 05:32:59;;;;;;;;;;;;;;;2.91;100.00;99670.16;4987061;28;19917;-72
2021/12/24 05:35:25;;;;;;;;;;;;;;;2.97;100.00;99672.25;5011338;28;19923;-72
2021/12/24 05:37:50;;;;;;;;;;;;;;;2.87;100.00;99676.53;5014484;28;20402;-73
2021/12/24 05:40:17;;;;;;;;;;;;;;;2.97;100.00;99679.22;5009919;28;20014;-73
2021/12/24 05:42:43;;;;;;;;;;;;;;;2.97;100.00;99674.84;5017216;28;20450;-73
2021/12/24 05:45:10;;;;;;;;;;;;;;;2.96;100.00;99670.63;4999999;28;19921;-72
2021/12/24 05:48:11;;;;;;;;;;;;;;;2.93;100.00;99678.63;5019753;28;19913;-73
2021/12/24 05:50:37;;;;;;;;;;;;;;;2.92;100.00;99677.00;5014072;28;19931;-74
2021/12/24 05:53:05;;;;;;;;;;;;;;;2.78;100.00;99672.09;5036527;28;19963;-73
2021/12/24 05:55:40;;;;;;;;;;;;;;;2.67;100.00;99684.13;5005187;28;19917;-73
2021/12/24 05:58:17;;;;;;;;;;;;;;;2.66;100.00;99685.06;5022758;28;20566;-74
2021/12/24 06:00:43;;;;;;;;;;;;;;;2.66;100.00;99684.25;5018106;28;19918;-73
2021/12/24 06:03:09;;;;;;;;;;;;;;;2.64;100.00;99684.38;5026287;28;19916;-72
2021/12/24 06:05:38;;;;;;;;;;;;;;;2.66;100.00;99679.09;5022470;28;19918;-72
2021/12/24 06:08:04;;;;;;;;;;;;;;;2.60;100.00;99677.81;5032295;28;20434;-72
2021/12/24 06:10:30;;;;;;;;;;;;;;;2.55;100.00;99668.75;5021831;28;20055;-72
2021/12/24 06:12:56;;;;;;;;;;;;;;;2.52;100.00;99681.00;5030627;28;20003;-73
2021/12/24 06:15:25;;;;;;;;;;;;;;;2.50;100.00;99680.28;5021577;28;19916;-73
2021/12/24 06:17:53;;;;;;;;;;;;;;;2.53;100.00;99685.22;5016670;28;19917;-72
2021/12/24 06:20:19;;;;;;;;;;;;;;;2.62;100.00;99686.28;5024366;28;19917;-72
2021/12/24 06:22:44;;;;;;;;;;;;;;;2.62;100.00;99683.69;5021858;28;19924;-73
2021/12/24 06:25:10;;;;;;;;;;;;;;;2.58;100.00;99677.09;4998920;28;19999;-73
2021/12/24 06:27:36;;;;;;;;;;;;;;;2.54;100.00;99683.44;5014741;28;19963;-73
2021/12/24 06:30:03;;;;;;;;;;;;;;;2.53;100.00;99687.81;5003493;28;19917;-72
2021/12/24 06:32:28;;;;;;;;;;;;;;;2.48;100.00;99681.34;5021778;28;19917;-71
2021/12/24 06:34:54;;;;;;;;;;;;;;;2.40;100.00;99675.97;5016719;28;20294;-73
2021/12/24 06:37:20;;;;;;;;;;;;;;;2.41;100.00;99675.84;5006370;28;20047;-72
2021/12/24 06:39:46;;;;;;;;;;;;;;;2.44;100.00;99680.75;5021334;28;20528;-72
2021/12/24 06:42:11;;;;;;;;;;;;;;;2.34;100.00;99679.84;5031763;28;19924;-73
2021/12/24 06:44:37;;;;;;;;;;;;;;;2.27;100.00;99683.84;5023531;28;19979;-73
2021/12/24 06:47:03;;;;;;;;;;;;;;;2.24;100.00;99689.25;5021106;28;20134;-73
2021/12/24 06:49:30;;;;;;;;;;;;;;;2.31;100.00;99685.25;5019773;28;19946;-74
2021/12/24 06:51:55;;;;;;;;;;;;;;;2.34;100.00;99685.84;5015661;28;20003;-72
2021/12/24 06:54:21;;;;;;;;;;;;;;;2.28;100.00;99699.25;4994466;28;19917;-74
2021/12/24 06:56:48;;;;;;;;;;;;;;;2.27;100.00;99702.78;5011154;28;19924;-72
2021/12/24 06:59:14;;;;;;;;;;;;;;;2.22;100.00;99704.06;5030311;28;19917;-72
2021/12/24 07:01:40;;;;;;;;;;;;;;;2.20;100.00;99703.38;5004541;28;19917;-72
2021/12/24 07:04:07;;;;;;;;;;;;;;;2.17;100.00;99712.19;4989103;28;20358;-73
2021/12/24 07:06:32;;;;;;;;;;;;;;;2.14;100.00;99715.81;5021025;28;19924;-73
2021/12/24 07:08:58;;;;;;;;;;;;;;;2.14;100.00;99709.84;5031462;28;19917;-73
2021/12/24 07:11:24;;;;;;;;;;;;;;;2.03;100.00;99713.25;5038107;28;19921;-73
2021/12/24 07:13:50;;;;;;;;;;;;;;;2.00;100.00;99723.84;5019436;28;19917;-72
2021/12/24 07:16:16;;;;;;;;;;;;;;;1.97;100.00;99728.41;5011168;28;20051;-73
2021/12/24 07:18:42;;;;;;;;;;;;;;;1.88;100.00;99720.38;5014612;28;20000;-73
2021/12/24 07:21:08;;;;;;;;;;;;;;;1.77;100.00;99706.63;5018914;28;20374;-73
2021/12/24 07:23:33;;;;;;;;;;;;;;;1.70;100.00;99709.69;5023355;28;19928;-73
2021/12/24 07:25:59;;;;;;;;;;;;;;;1.64;100.00;99709.31;4988185;28;19913;-73
2021/12/24 07:28:25;;;;;;;;;;;;;;;1.56;100.00;99707.28;5017527;28;19928;-73
2021/12/24 07:30:50;;;;;;;;;;;;;;;1.46;100.00;99724.44;5016069;28;19917;-73
2021/12/24 07:33:16;;;;;;;;;;;;;;;1.38;100.00;99735.34;5017270;28;19943;-73
2021/12/24 07:35:42;;;;;;;;;;;;;;;1.41;100.00;99734.28;5029926;28;19917;-72
2021/12/24 07:38:13;;;;;;;;;;;;;;;1.34;100.00;99739.91;5006306;28;20366;-73
2021/12/24 07:40:40;;;;;;;;;;;;;;;1.38;100.00;99737.09;5025108;28;20328;-73
2021/12/24 07:43:06;;;;;;;;;;;;;;;1.31;100.00;99740.13;5008564;28;19924;-73
2021/12/24 07:45:31;;;;;;;;;;;;;;;1.30;100.00;99753.97;5022709;28;20289;-73
2021/12/24 07:48:14;;;;;;;;;;;;;;;1.35;100.00;99759.63;5000019;28;19913;-73
2021/12/24 07:53:08;;;;;;;;;;;;;;;1.35;100.00;99764.78;5025975;28;19916;-73
2021/12/24 07:55:34;;;;;;;;;;;;;;;1.33;100.00;99758.09;5024336;28;19927;-73
2021/12/24 07:58:01;;;;;;;;;;;;;;;1.26;100.00;99764.63;5031609;28;20025;-72
2021/12/24 08:00:27;;;;;;;;;;;;;;;1.20;100.00;99768.47;5013179;28;20396;-72
2021/12/24 08:02:57;;;;;;;;;;;;;;;1.20;100.00;99773.66;5015088;28;20399;-73
2021/12/24 08:05:25;;;;;;;;;;;;;;;1.16;100.00;99752.38;5017103;28;19967;-72
2021/12/24 08:07:51;;;;;;;;;;;;;;;1.13;100.00;99765.53;5008158;28;20428;-73
2021/12/24 08:10:17;;;;;;;;;;;;;;;1.09;100.00;99763.25;5014950;28;19921;-71
2021/12/24 08:12:42;;;;;;;;;;;;;;;1.06;100.00;99772.06;5009305;28;19913;-71
2021/12/24 08:15:08;;;;;;;;;;;;;;;1.03;100.00;99766.28;5017466;28;20351;-73
2021/12/24 08:17:34;;;;;;;;;;;;;;;1.02;100.00;99762.88;5011333;28;19929;-73
2021/12/24 08:20:00;;;;;;;;;;;;;;;0.97;100.00;99770.94;5024318;28;19925;-72
2021/12/24 08:22:26;;;;;;;;;;;;;;;0.97;100.00;99770.94;5023486;28;19924;-74
2021/12/24 08:24:51;;;;;;;;;;;;;;;0.98;100.00;99774.38;5021748;28;19919;-73
2021/12/24 08:27:18;;;;;;;;;;;;;;;0.95;100.00;99777.16;5017988;28;19917;-73
2021/12/24 08:29:44;;;;;;;;;;;;;;;0.92;100.00;99774.78;5022796;28;19921;-72
2021/12/24 08:32:10;;;;;;;;;;;;;;;0.92;100.00;99773.06;4996542;28;19914;-72
2021/12/24 08:34:36;;;;;;;;;;;;;;;0.90;100.00;99782.63;5036850;28;20007;-73
2021/12/24 08:37:02;;;;;;;;;;;;;;;0.90;100.00;99777.47;5014325;28;19917;-74
2021/12/24 08:39:27;;;;;;;;;;;;;;;0.89;100.00;99778.41;5016485;28;19913;-73
2021/12/24 08:41:54;;;;;;;;;;;;;;;0.89;100.00;99799.06;5039843;28;20337;-73
2021/12/24 08:44:21;;;;;;;;;;;;;;;0.89;100.00;99806.81;5009592;28;19947;-73
2021/12/24 08:46:46;;;;;;;;;;;;;;;0.85;100.00;99802.81;5001462;28;19924;-73
2021/12/24 08:49:12;;;;;;;;;;;;;;;0.83;100.00;99801.25;5018326;28;19918;-72
2021/12/24 08:51:37;;;;;;;;;;;;;;;0.85;100.00;99784.75;5026006;28;19912;-73
2021/12/24 08:54:03;;;;;;;;;;;;;;;0.81;100.00;99795.38;5027756;28;19917;-73
2021/12/24 08:56:28;;;;;;;;;;;;;;;0.77;100.00;99784.44;5019713;28;19920;-73
2021/12/24 08:58:55;;;;;;;;;;;;;;;0.76;100.00;99788.78;5015835;28;19913;-71
2021/12/24 09:01:21;;;;;;;;;;;;;;;0.74;100.00;99779.50;5017450;28;20014;-73
2021/12/24 09:03:46;;;;;;;;;;;;;;;0.75;100.00;99779.41;5029556;28;19959;-73
2021/12/24 09:06:12;;;;;;;;;;;;;;;0.76;100.00;99777.63;4971232;28;19920;-73
2021/12/24 09:08:42;;;;;;;;;;;;;;;0.75;100.00;99781.97;5023950;28;19924;-73
2021/12/24 09:11:07;;;;;;;;;;;;;;;0.73;100.00;99788.16;5020376;28;20011;-73
2021/12/24 09:13:33;;;;;;;;;;;;;;;0.72;100.00;99783.94;5029914;28;20055;-70
2021/12/24 09:15:59;;;;;;;;;;;;;;;0.72;100.00;99778.78;5014619;28;19917;-73
2021/12/24 09:18:24;;;;;;;;;;;;;;;0.72;100.00;99778.78;5026604;28;19923;-74
2021/12/24 09:20:50;;;;;;;;;;;;;;;0.71;100.00;99785.69;5019260;28;20008;-72
2021/12/24 09:23:17;;;;;;;;;;;;;;;0.72;100.00;99789.94;5009176;28;19921;-71
2021/12/24 09:25:43;;;;;;;;;;;;;;;0.71;100.00;99802.94;5020155;28;20225;-73
2021/12/24 09:28:09;;;;;;;;;;;;;;;0.70;100.00;99804.69;4997751;28;20335;-74
2021/12/24 09:30:35;;;;;;;;;;;;;;;0.68;100.00;99816.88;5018048;28;19917;-73
2021/12/24 09:33:01;;;;;;;;;;;;;;;0.69;100.00;99828.84;5018851;28;19986;-74
2021/12/24 09:35:27;;;;;;;;;;;;;;;0.67;100.00;99828.13;5015445;28;19970;-73
2021/12/24 09:37:53;;;;;;;;;;;;;;;0.64;100.00;99841.25;5031838;28;19917;-73
2021/12/24 09:40:18;;;;;;;;;;;;;;;0.65;100.00;99836.91;5031235;28;19928;-73
2021/12/24 09:42:44;;;;;;;;;;;;;;;0.61;100.00;99841.47;5042914;28;19921;-72
2021/12/24 09:45:10;;;;;;;;;;;;;;;0.68;100.00;99841.84;5022826;28;19923;-74
2021/12/24 09:47:36;;;;;;;;;;;;;;;0.72;100.00;99841.56;5002714;28;20003;-72
2021/12/24 09:50:02;;;;;;;;;;;;;;;0.65;100.00;99850.63;5019497;28;19988;-71
2021/12/24 09:52:28;;;;;;;;;;;;;;;0.61;100.00;99859.53;5023442;28;19936;-75
2021/12/24 09:54:53;;;;;;;;;;;;;;;0.58;100.00;99870.91;5019189;28;20409;-74
2021/12/24 09:57:19;;;;;;;;;;;;;;;0.57;100.00;99871.00;5014664;28;19917;-72
2021/12/24 09:59:45;;;;;;;;;;;;;;;0.47;100.00;99875.09;5016599;28;19924;-74
2021/12/24 10:02:19;;;;;;;;;;;;;;;0.45;100.00;99869.22;5023421;28;20337;-72
2021/12/24 10:04:45;;;;;;;;;;;;;;;0.39;100.00;99852.41;4989915;28;19916;-70
2021/12/24 10:07:12;;;;;;;;;;;;;;;0.36;100.00;99860.38;4995955;28;19963;-72
2021/12/24 10:09:42;;;;;;;;;;;;;;;0.30;100.00;99865.91;5020320;28;20019;-73
2021/12/24 10:12:19;;;;;;;;;;;;;;;0.34;100.00;99865.63;5034056;28;19956;-73
2021/12/24 10:14:49;;;;;;;;;;;;;;;0.33;100.00;99866.53;5018615;28;20557;-73
2021/12/24 10:17:23;;;;;;;;;;;;;;;0.35;100.00;99874.19;5001923;28;19917;-72
2021/12/24 10:19:51;;;;;;;;;;;;;;;0.35;100.00;99871.59;5021542;28;20334;-73
2021/12/24 10:22:19;;;;;;;;;;;;;;;0.33;100.00;99873.47;5023603;28;20413;-71
2021/12/24 10:25:17;;;;;;;;;;;;;;;0.34;100.00;99872.53;5024183;28;19960;-72
2021/12/24 10:27:43;;;;;;;;;;;;;;;0.35;100.00;99877.59;4999899;28;19913;-73
2021/12/24 10:30:22;;;;;;;;;;;;;;;0.39;100.00;99884.19;5001208;28;19917;-73
2021/12/24 10:32:49;;;;;;;;;;;;;;;0.38;100.00;99884.31;5003346;28;19917;-72
2021/12/24 10:35:25;;;;;;;;;;;;;;;0.34;100.00;99888.00;5017955;28;20668;-74
2021/12/24 10:38:09;;;;;;;;;;;;;;;0.32;100.00;99889.84;5016800;28;19921;-72
2021/12/24 10:40:35;;;;;;;;;;;;;;;0.29;100.00;99890.91;4993988;28;19921;-73
2021/12/24 10:43:00;;;;;;;;;;;;;;;0.26;100.00;99892.84;5011726;28;19917;-73
2021/12/24 10:45:26;;;;;;;;;;;;;;;0.18;100.00;99891.59;4974010;28;20063;-73
2021/12/24 10:47:51;;;;;;;;;;;;;;;0.20;100.00;99894.06;4996792;28;19913;-74
2021/12/24 10:50:32;;;;;;;;;;;;;;;0.18;100.00;99896.75;5001795;28;19944;-71
2021/12/24 10:55:38;;;;;;;;;;;;;;;0.22;100.00;99892.22;5005751;28;20696;-72
2021/12/24 10:58:05;;;;;;;;;;;;;;;0.26;100.00;99891.09;5019653;28;19921;-73
2021/12/24 11:00:31;;;;;;;;;;;;;;;0.24;100.00;99884.38;5014224;28;20379;-73
2021/12/24 11:02:59;;;;;;;;;;;;;;;0.34;100.00;99894.00;5018901;28;19916;-72
2021/12/24 11:05:30;;;;;;;;;;;;;;;0.32;100.00;99889.84;4991963;28;20619;-73
2021/12/24 11:07:57;;;;;;;;;;;;;;;0.34;100.00;99893.16;5016413;28;19939;-72
2021/12/24 11:10:24;;;;;;;;;;;;;;;0.32;100.00;99895.00;5029071;28;20401;-72
2021/12/24 11:12:54;;;;;;;;;;;;;;;0.45;100.00;99885.53;5010799;28;20481;-73
2021/12/24 11:15:20;;;;;;;;;;;;;;;0.48;100.00;99887.91;5020747;28;20250;-74
2021/12/24 11:17:46;;;;;;;;;;;;;;;0.55;100.00;99891.75;5009917;28;20394;-73
2021/12/24 11:20:12;;;;;;;;;;;;;;;0.64;100.00;99895.47;5005845;28;20290;-73
2021/12/24 11:22:51;;;;;;;;;;;;;;;0.60;100.00;99886.25;5009452;28;19924;-72
2021/12/24 11:25:18;;;;;;;;;;;;;;;0.64;100.00;99902.34;4992361;28;20480;-73
2021/12/24 11:27:43;;;;;;;;;;;;;;;0.59;100.00;99907.84;5017438;28;19928;-74
2021/12/24 11:30:09;;;;;;;;;;;;;;;0.51;100.00;99903.19;5023190;28;19939;-72
2021/12/24 11:32:35;;;;;;;;;;;;;;;0.47;100.00;99911.22;5015948;28;19932;-73
2021/12/24 11:35:01;;;;;;;;;;;;;;;0.47;100.00;99916.41;5025019;28;19912;-70
2021/12/24 11:37:28;;;;;;;;;;;;;;;0.49;100.00;99922.28;5029684;28;19925;-74
2021/12/24 11:39:54;;;;;;;;;;;;;;;0.53;100.00;99918.59;5022072;28;20032;-73
2021/12/24 11:42:21;;;;;;;;;;;;;;;0.56;100.00;99924.34;5031032;28;20138;-72
2021/12/24 11:44:48;;;;;;;;;;;;;;;0.57;100.00;99922.59;5021463;28;19917;-73
2021/12/24 11:47:14;;;;;;;;;;;;;;;0.64;100.00;99926.44;4999606;28;19917;-72
2021/12/24 11:49:39;;;;;;;;;;;;;;;0.68;100.00;99930.47;5016645;28;20417;-71
2021/12/24 11:52:05;;;;;;;;;;;;;;;0.75;100.00;99934.28;5001368;28;20023;-72
2021/12/24 11:54:31;;;;;;;;;;;;;;;0.74;100.00;99927.47;5004910;28;19917;-72
2021/12/24 11:56:58;;;;;;;;;;;;;;;0.80;100.00;99936.53;5013712;28;19925;-73
2021/12/24 11:59:36;;;;;;;;;;;;;;;0.74;100.00;99939.56;5005640;28;20466;-73
2021/12/24 12:02:02;;;;;;;;;;;;;;;0.79;100.00;99945.22;4977641;28;19917;-72
2021/12/24 12:04:28;;;;;;;;;;;;;;;0.77;100.00;99947.06;5022647;28;19917;-73
2021/12/24 12:07:10;;;;;;;;;;;;;;;0.74;100.00;99942.13;5025285;28;19921;-72
2021/12/24 12:09:40;;;;;;;;;;;;;;;0.71;100.00;99950.88;5011557;28;19990;-71
2021/12/24 12:12:06;;;;;;;;;;;;;;;0.71;100.00;99947.50;5026502;28;19917;-74
2021/12/24 12:14:33;;;;;;;;;;;;;;;0.77;100.00;99947.06;5008927;28;19923;-72
2021/12/24 12:17:01;;;;;;;;;;;;;;;0.80;100.00;99953.78;5025595;28;20078;-72
2021/12/24 12:19:38;;;;;;;;;;;;;;;0.73;100.00;99955.94;5023804;28;19917;-73
2021/12/24 12:22:13;;;;;;;;;;;;;;;0.71;100.00;99950.88;5025267;28;19953;-73
2021/12/24 12:27:29;;;;;;;;;;;;;;;0.55;100.00;99971.75;4992046;28;19913;-73
2021/12/24 12:29:54;;;;;;;;;;;;;;;0.49;100.00;99969.56;5016630;28;19917;-73
2021/12/24 12:32:24;;;;;;;;;;;;;;;0.51;100.00;99970.28;5025810;28;19963;-71
2021/12/24 12:34:51;;;;;;;;;;;;;;;0.48;100.00;99967.91;5024263;28;20007;-72
2021/12/24 12:37:30;;;;;;;;;;;;;;;0.44;100.00;99984.53;5017871;28;19917;-73
2021/12/24 12:40:02;;;;;;;;;;;;;;;0.40;100.00;99980.50;5032370;28;19923;-73
2021/12/24 12:42:46;;;;;;;;;;;;;;;0.39;100.00;99983.97;5018026;28;20007;-71
2021/12/24 12:45:12;;;;;;;;;;;;;;;0.40;100.00;99983.06;5008938;28;19964;-72
2021/12/24 12:47:50;;;;;;;;;;;;;;;0.41;100.00;99986.47;4993321;28;19956;-72
2021/12/24 12:50:17;;;;;;;;;;;;;;;0.39;100.00;99989.97;4993868;28;20278;-73
2021/12/24 12:52:42;;;;;;;;;;;;;;;0.44;100.00;99989.69;5022956;28;19918;-73
2021/12/24 12:55:27;;;;;;;;;;;;;;;0.46;100.00;99989.59;5014121;28;19917;-73
2021/12/24 12:57:52;;;;;;;;;;;;;;;0.45;100.00;99983.56;5032568;28;19917;-72
2021/12/24 13:00:19;;;;;;;;;;;;;;;0.47;100.00;99992.06;5023238;28;20484;-73
2021/12/24 13:02:57;;;;;;;;;;;;;;;0.48;100.00;100004.03;5013843;28;19921;-72
2021/12/24 13:05:24;;;;;;;;;;;;;;;0.43;100.00;100008.66;5001565;28;19917;-72
2021/12/24 13:07:49;;;;;;;;;;;;;;;0.36;100.00;100008.25;4990684;28;19917;-73
2021/12/24 13:10:17;;;;;;;;;;;;;;;0.35;100.00;100024.63;4996675;28;19925;-73
2021/12/24 13:12:42;;;;;;;;;;;;;;;0.37;100.00;100025.34;5035477;28;19917;-72
2021/12/24 13:15:15;;;;;;;;;;;;;;;0.42;100.00;100022.50;5020850;28;19917;-74
2021/12/24 13:17:44;;;;;;;;;;;;;;;0.31;100.00;100032.69;4993289;28;20430;-73
2021/12/24 13:22:56;;;;;;;;;;;;;;;0.18;100.00;100037.78;4997157;28;20005;-72
2021/12/24 13:25:23;;;;;;;;;;;;;;;0.19;100.00;100049.78;5025676;28;20448;-73
2021/12/24 13:27:52;;;;;;;;;;;;;;;0.16;100.00;100063.66;5005338;28;19916;-74
2021/12/24 13:30:22;;;;;;;;;;;;;;;0.16;100.00;100060.28;5031568;28;19919;-73
2021/12/24 13:32:53;;;;;;;;;;;;;;;0.14;100.00;100069.84;5031062;28;19932;-71
2021/12/24 13:35:23;;;;;;;;;;;;;;;0.11;100.00;100077.78;5022198;28;19913;-73
2021/12/24 13:37:49;;;;;;;;;;;;;;;0.12;100.00;100077.69;4994609;28;19968;-73
2021/12/24 13:40:20;;;;;;;;;;;;;;;0.12;100.00;100088.00;5027901;28;20331;-71
2021/12/24 13:42:49;;;;;;;;;;;;;;;0.09;100.00;100085.59;5033712;28;19916;-73
2021/12/24 13:45:15;;;;;;;;;;;;;;;0.08;100.00;100089.13;5020020;28;19921;-72
2021/12/24 13:47:56;;;;;;;;;;;;;;;0.09;100.00;100093.34;5015395;28;19917;-72
2021/12/24 13:55:36;;;;;;;;;;;;;;;0.04;100.00;100102.28;5023916;28;20487;-73
2021/12/24 13:58:03;;;;;;;;;;;;;;;0.05;100.00;100106.53;5010367;28;19995;-72
2021/12/24 14:00:30;;;;;;;;;;;;;;;0.03;100.00;100109.19;5012566;28;20455;-74
2021/12/24 14:03:03;;;;;;;;;;;;;;;0.05;100.00;100114.25;5010384;28;20404;-72
2021/12/24 14:05:28;;;;;;;;;;;;;;;0.06;100.00;100115.91;5032728;28;19917;-73
2021/12/24 14:08:04;;;;;;;;;;;;;;;0.06;100.00;100115.91;4999355;28;19986;-72
2021/12/24 14:10:30;;;;;;;;;;;;;;;0.05;100.00;100115.09;5025352;28;19916;-72
2021/12/24 14:13:03;;;;;;;;;;;;;;;0.08;100.00;100117.50;5012441;28;19928;-74
2021/12/24 14:15:29;;;;;;;;;;;;;;;0.05;100.00;100127.97;4997636;28;19921;-72
2021/12/24 14:21:44;;;;;;;;;;;;;;;0.01;100.00;100136.84;5019819;28;19921;-72
2021/12/24 14:23:33;;;;;;;;;;;;;;;-0.05;100.00;100148.34;5008131;28;20638;-72
2021/12/24 14:25:59;;;;;;;;;;;;;;;-0.08;100.00;100145.13;4999069;28;19917;-73
2021/12/24 14:28:25;;;;;;;;;;;;;;;-0.02;100.00;100149.91;5011848;28;20426;-73
2021/12/24 14:30:57;;;;;;;;;;;;;;;-0.08;100.00;100158.00;5021606;28;20003;-72
2021/12/24 14:33:23;;;;;;;;;;;;;;;-0.09;100.00;100162.34;4998525;28;19921;-72
2021/12/24 14:35:52;;;;;;;;;;;;;;;-0.16;100.00;100167.97;5006006;28;19963;-72
2021/12/24 14:38:18;;;;;;;;;;;;;;;-0.07;100.00;100170.00;5016012;28;19968;-73